Terminal Aerodrome Forecast
Issued by NWS

Home | Current Version | Previous Version | Text Only | Print | Product List | Glossary On
Versions: 1 2 3 4 5 6 7 8 9 10 11 12
000
FTUS46 KSEW 312300
TAFBFI
TAF
KBFI 312320Z 0100/0124 32011G15KT P6SM SCT250
     FM010400 VRB03KT P6SM SCT250
     FM011300 00000KT P6SM BKN120 PROB30 0115/0119 TS BKN120CB
     FM011900 32008KT P6SM SCT120=

USA.gov is the U.S. government's official web portal to all federal, state and local government web resources and services.